This is the latest recevied weather packets stored in our database for station/object K0APR. If no packets are shown the sender has not sent any weather packets the latest 10 day(s).
| Time | Temp. | Humidity | Pressure | Rain* | Wind** | Luminosity | Snow |
|---|---|---|---|---|---|---|---|
| 1777653577 | 8.33° C | 52% | 1020 hPa | 0 mm | - | 876 W/m² | - |
| 1777653273 | 8.89° C | 51% | 1020 hPa | 0 mm | - | 464 W/m² | - |
| 1777652970 | 7.22° C | 58% | 1020 hPa | 0 mm | - | 827 W/m² | - |
| 1777652666 | 7.78° C | 59% | 1020 hPa | 0 mm | - | 166 W/m² | - |
| 1777652363 | 7.78° C | 56% | 1020 hPa | 0 mm | - | 628 W/m² | - |
| 1777652060 | 7.22° C | 61% | 1019.6 hPa | 0 mm | - | 767 W/m² | - |
| 1777651757 | 7.22° C | 60% | 1020 hPa | 0 mm | - | 713 W/m² | - |
| 1777651454 | 7.22° C | 61% | 1020 hPa | 0 mm | - | 716 W/m² | - |
| 1777651151 | 7.22° C | 61% | 1019.6 hPa | 0 mm | - | 733 W/m² | - |
| 1777650848 | 6.67° C | 64% | 1019.6 hPa | 0 mm | - | 706 W/m² | - |
| 1777650544 | 6.67° C | 64% | 1019.6 hPa | 0 mm | - | 674 W/m² | - |
| 1777650242 | 6.67° C | 63% | 1020 hPa | 0 mm | - | 643 W/m² | - |
| 1777649939 | 6.67° C | 63% | 1019.6 hPa | 0 mm | - | 633 W/m² | - |
| 1777649636 | 6.11° C | 64% | 1019.6 hPa | 0 mm | - | 615 W/m² | - |
| 1777649332 | 6.11° C | 65% | 1020 hPa | 0 mm | - | 599 W/m² | - |
| 1777649030 | 6.11° C | 66% | 1020 hPa | 0 mm | - | 596 W/m² | - |
| 1777648727 | 6.11° C | 68% | 1020 hPa | 0 mm | - | 597 W/m² | - |
| 1777648423 | 5.56° C | 68% | 1019.6 hPa | 0 mm | - | 560 W/m² | - |
| 1777648119 | 5.56° C | 69% | 1019.6 hPa | 0 mm | - | 540 W/m² | - |
| 1777647816 | 5.56° C | 70% | 1020 hPa | 0 mm | - | 520 W/m² | - |
| 1777647512 | 5° C | 70% | 1019.6 hPa | 0 mm | - | 485 W/m² | - |
| 1777647209 | 5.56° C | 69% | 1019.6 hPa | 0 mm | - | 461 W/m² | - |
| 1777646906 | 5° C | 71% | 1019.6 hPa | 0 mm | - | 432 W/m² | - |
| 1777646602 | 5° C | 70% | 1020 hPa | 0 mm | - | 430 W/m² | - |
| 1777646298 | 5° C | 72% | 1020 hPa | 0 mm | - | 419 W/m² | - |
* Rain latest hour (hover to see other rain measurements)
** Current wind speed in m/s (hover to see current wind gust speed)